Time;durP1;ratioP1;P1;durP2;ratioP2;P2;SDS_P1;SDS_P2;PMS_P1;PMS_P2;Temp;Humidity;BMP_temperature;BMP_pressure;BME280_temperature;BME280_humidity;BME280_pressure;Samples;Min_cycle;Max_cycle;Signal;HPM_P1;HPM_P2
2022/07/07 00:00:25;;;;;;;5.00;1.40;;;;;;;13.38;75.77;99920.83;104755;1273;61628;-69
2022/07/07 00:03:15;;;;;;;8.60;1.60;;;;;;;13.37;75.82;99918.23;105062;1271;73864;-72
2022/07/07 00:06:04;;;;;;;6.00;1.20;;;;;;;13.37;75.90;99918.66;105029;1271;69619;-72
2022/07/07 00:08:54;;;;;;;7.30;1.70;;;;;;;13.36;76.10;99916.75;105304;1271;73289;-73
2022/07/07 00:11:43;;;;;;;7.80;1.50;;;;;;;13.34;76.09;99913.23;104922;1271;60243;-71
2022/07/07 00:14:31;;;;;;;7.60;1.30;;;;;;;13.32;76.14;99906.27;105231;1271;60551;-73
2022/07/07 00:17:20;;;;;;;6.70;1.40;;;;;;;13.31;76.20;99904.42;105017;1271;71954;-72
2022/07/07 00:20:09;;;;;;;6.60;1.20;;;;;;;13.29;76.42;99904.52;104996;1271;68414;-71
2022/07/07 00:22:58;;;;;;;6.60;1.30;;;;;;;13.27;76.48;99906.83;104906;1271;73761;-73
2022/07/07 00:25:46;;;;;;;7.00;1.30;;;;;;;13.24;76.80;99899.59;105020;1271;60301;-70
2022/07/07 00:28:34;;;;;;;8.50;1.40;;;;;;;13.22;76.88;99896.30;105244;1271;62042;-69
2022/07/07 00:31:22;;;;;;;7.40;1.30;;;;;;;13.19;77.34;99893.02;105086;1271;73812;-70
2022/07/07 00:34:10;;;;;;;8.00;1.10;;;;;;;13.17;77.58;99894.80;104816;1273;67673;-71
2022/07/07 00:36:58;;;;;;;6.10;1.10;;;;;;;13.15;77.55;99893.35;105082;1271;72926;-73
2022/07/07 00:39:46;;;;;;;8.50;1.30;;;;;;;13.15;77.86;99889.48;105056;1271;61229;-68
2022/07/07 00:42:35;;;;;;;6.60;1.10;;;;;;;13.15;78.18;99887.52;105049;1271;62035;-70
2022/07/07 00:45:25;;;;;;;6.40;1.20;;;;;;;13.12;78.49;99888.31;104876;1271;73568;-68
2022/07/07 00:48:17;;;;;;;8.80;1.30;;;;;;;13.09;78.87;99886.61;104893;1271;68765;-70
2022/07/07 00:51:10;;;;;;;8.40;1.30;;;;;;;13.08;78.66;99882.21;104990;1271;72168;-69
2022/07/07 00:53:58;;;;;;;10.30;1.60;;;;;;;13.07;78.91;99882.52;104903;1271;60088;-72
2022/07/07 00:56:46;;;;;;;5.20;1.00;;;;;;;13.06;78.87;99875.82;104944;1271;61288;-70
2022/07/07 00:59:41;;;;;;;7.10;1.40;;;;;;;13.05;78.91;99877.14;105014;1271;73381;-71
2022/07/07 01:02:31;;;;;;;6.00;1.20;;;;;;;13.05;79.23;99875.41;104782;1271;67151;-72
2022/07/07 01:05:20;;;;;;;7.50;1.10;;;;;;;13.04;79.41;99873.83;105025;1271;74414;-72
2022/07/07 01:08:10;;;;;;;8.10;1.30;;;;;;;13.03;79.41;99869.48;104864;1273;59675;-70
2022/07/07 01:10:59;;;;;;;8.30;1.80;;;;;;;13.03;79.31;99871.80;104866;1271;59589;-70
2022/07/07 01:13:47;;;;;;;9.40;1.30;;;;;;;13.04;79.39;99871.02;104953;1271;73332;-71
2022/07/07 01:16:35;;;;;;;7.90;1.30;;;;;;;13.04;79.36;99871.40;105053;1271;68245;-69
2022/07/07 01:19:23;;;;;;;5.10;1.10;;;;;;;13.04;79.30;99868.48;105101;1271;72463;-72
2022/07/07 01:22:17;;;;;;;6.20;1.10;;;;;;;13.05;79.35;99865.25;104847;1271;59620;-71
2022/07/07 01:25:07;;;;;;;7.00;1.10;;;;;;;13.04;79.34;99861.54;104861;1271;60429;-69
2022/07/07 01:27:55;;;;;;;7.40;1.20;;;;;;;13.03;79.25;99857.34;104843;1271;74672;-71
2022/07/07 01:30:43;;;;;;;8.50;1.10;;;;;;;13.04;79.39;99853.07;104910;1271;67576;-69
2022/07/07 01:33:31;;;;;;;6.80;1.30;;;;;;;13.04;79.32;99854.50;104976;1271;72218;-72
2022/07/07 01:36:19;;;;;;;6.00;1.20;;;;;;;13.04;79.31;99852.98;104971;1273;59681;-70
2022/07/07 01:39:07;;;;;;;8.50;1.10;;;;;;;13.06;79.13;99852.30;105018;1271;62497;-69
2022/07/07 01:41:56;;;;;;;5.40;0.90;;;;;;;13.08;78.96;99856.59;105004;1271;71177;-72
2022/07/07 01:44:44;;;;;;;8.90;1.40;;;;;;;13.08;78.99;99854.02;105046;1271;68809;-70
2022/07/07 01:47:33;;;;;;;6.50;1.20;;;;;;;13.10;78.72;99852.99;105110;1271;72971;-69
2022/07/07 01:50:21;;;;;;;6.70;1.40;;;;;;;13.10;78.73;99848.48;104893;1271;59561;-72
2022/07/07 01:53:09;;;;;;;6.30;1.10;;;;;;;13.11;78.58;99847.95;105178;1271;61293;-72
2022/07/07 01:56:05;;;;;;;7.80;1.40;;;;;;;13.11;78.68;99848.79;105053;1271;72961;-71
2022/07/07 01:58:54;;;;;;;5.60;1.10;;;;;;;13.10;78.48;99847.47;104956;1271;65964;-72
2022/07/07 02:01:42;;;;;;;7.60;1.40;;;;;;;13.10;78.58;99844.27;104867;1271;73084;-70
2022/07/07 02:04:31;;;;;;;8.40;1.40;;;;;;;13.11;78.47;99850.05;104782;1271;59777;-71
2022/07/07 02:07:19;;;;;;;4.20;1.00;;;;;;;13.12;78.57;99845.56;104750;1271;61038;-71
2022/07/07 02:10:07;;;;;;;6.90;1.30;;;;;;;13.12;78.44;99845.54;105064;1271;74909;-74
2022/07/07 02:12:56;;;;;;;7.60;1.40;;;;;;;13.14;78.37;99843.63;105173;1271;67242;-75
2022/07/07 02:15:44;;;;;;;6.60;1.20;;;;;;;13.15;78.31;99845.48;104795;1271;73102;-72
2022/07/07 02:18:37;;;;;;;6.70;1.10;;;;;;;13.14;78.23;99840.55;104946;1271;60636;-72
2022/07/07 02:21:26;;;;;;;5.60;1.20;;;;;;;13.14;78.24;99842.16;104987;1271;60324;-72
2022/07/07 02:24:14;;;;;;;7.30;1.40;;;;;;;13.14;78.17;99837.71;104804;1271;72041;-73
2022/07/07 02:27:03;;;;;;;6.00;1.00;;;;;;;13.13;78.12;99836.67;104795;1273;69608;-71
2022/07/07 02:29:51;;;;;;;6.10;1.20;;;;;;;13.11;78.23;99836.29;104834;1271;74000;-72
2022/07/07 02:32:39;;;;;;;7.70;1.30;;;;;;;13.11;78.30;99835.10;105018;1271;59720;-73
2022/07/07 02:35:27;;;;;;;5.60;1.10;;;;;;;13.11;78.34;99838.14;105060;1271;62101;-72
2022/07/07 02:38:18;;;;;;;5.00;1.30;;;;;;;13.12;78.15;99837.16;105106;1271;73004;-72
2022/07/07 02:41:07;;;;;;;7.10;1.30;;;;;;;13.13;78.16;99835.86;104797;1271;69583;-71
2022/07/07 02:43:55;;;;;;;6.90;1.40;;;;;;;13.14;78.00;99835.77;105027;1271;73625;-71
2022/07/07 02:46:43;;;;;;;4.80;0.90;;;;;;;13.15;77.95;99836.58;105057;1271;59726;-71
2022/07/07 02:49:32;;;;;;;7.30;1.50;;;;;;;13.16;77.92;99834.17;104817;1271;59761;-71
2022/07/07 02:52:20;;;;;;;6.30;1.10;;;;;;;13.17;77.95;99836.56;104916;1271;74459;-72
2022/07/07 02:55:08;;;;;;;5.30;1.10;;;;;;;13.18;77.85;99837.49;104828;1271;68997;-71
2022/07/07 02:57:58;;;;;;;4.60;1.10;;;;;;;13.19;77.79;99833.63;104890;1271;73121;-70
2022/07/07 03:00:47;;;;;;;6.10;1.20;;;;;;;13.19;77.78;99832.59;104859;1271;59634;-71
2022/07/07 03:03:36;;;;;;;6.50;1.10;;;;;;;13.19;77.83;99833.09;105006;1271;60062;-70
2022/07/07 03:06:24;;;;;;;6.50;1.20;;;;;;;13.20;77.68;99826.43;105078;1271;72190;-69
2022/07/07 03:09:12;;;;;;;6.30;1.40;;;;;;;13.21;77.64;99822.63;104961;1271;70013;-70
2022/07/07 03:12:00;;;;;;;6.00;1.20;;;;;;;13.22;77.59;99821.77;104882;1271;74369;-70
2022/07/07 03:14:48;;;;;;;5.20;1.20;;;;;;;13.23;77.58;99822.24;104883;1271;59876;-69
2022/07/07 03:17:41;;;;;;;4.90;1.00;;;;;;;13.22;77.41;99820.05;105011;1271;59760;-70
2022/07/07 03:20:29;;;;;;;5.40;1.10;;;;;;;13.22;77.38;99818.59;104993;1271;74469;-68
2022/07/07 03:23:17;;;;;;;8.10;1.20;;;;;;;13.23;77.23;99812.78;104918;1271;69442;-70
2022/07/07 03:26:06;;;;;;;5.30;1.20;;;;;;;13.25;77.29;99817.79;104846;1271;74512;-71
2022/07/07 03:28:55;;;;;;;5.70;1.20;;;;;;;13.26;77.28;99813.23;105126;1271;59767;-71
2022/07/07 03:31:42;;;;;;;5.20;1.00;;;;;;;13.27;77.04;99805.41;105080;1271;60441;-69
2022/07/07 03:34:31;;;;;;;5.70;1.20;;;;;;;13.29;76.88;99808.13;104915;1271;74975;-69
2022/07/07 03:37:19;;;;;;;5.50;1.00;;;;;;;13.32;76.73;99805.41;104798;1273;68357;-70
2022/07/07 03:40:08;;;;;;;4.60;1.00;;;;;;;13.33;76.57;99807.45;104970;1271;73716;-72
2022/07/07 03:42:57;;;;;;;6.70;1.10;;;;;;;13.35;76.50;99804.23;104879;1272;59724;-63
2022/07/07 03:45:45;;;;;;;5.20;1.10;;;;;;;13.37;76.63;99802.81;104798;1273;60045;-69
2022/07/07 03:48:33;;;;;;;6.20;1.10;;;;;;;13.39;76.69;99806.19;104919;1271;74838;-67
2022/07/07 03:51:22;;;;;;;6.40;1.30;;;;;;;13.40;76.62;99804.98;104880;1271;69665;-68
2022/07/07 03:54:12;;;;;;;6.70;1.00;;;;;;;13.42;76.52;99803.81;105051;1271;73466;-69
2022/07/07 03:57:00;;;;;;;6.00;0.90;;;;;;;13.43;76.70;99801.86;104781;1272;60179;-67
2022/07/07 03:59:48;;;;;;;7.10;1.10;;;;;;;13.46;76.91;99802.55;104873;1271;59754;-66
2022/07/07 04:02:37;;;;;;;6.10;1.00;;;;;;;13.46;76.80;99802.84;104902;1271;72555;-67
2022/07/07 04:05:25;;;;;;;5.80;1.20;;;;;;;13.48;76.91;99801.30;105211;1271;69168;-68
2022/07/07 04:08:15;;;;;;;8.10;1.30;;;;;;;13.50;76.93;99802.63;105006;1271;73456;-68
2022/07/07 04:11:03;;;;;;;4.90;0.90;;;;;;;13.54;76.57;99802.13;104819;1271;59747;-68
2022/07/07 04:13:52;;;;;;;4.40;1.10;;;;;;;13.57;76.15;99797.39;104912;1271;60238;-69
2022/07/07 04:16:40;;;;;;;4.80;0.90;;;;;;;13.61;75.88;99796.52;104795;1271;74536;-67
2022/07/07 04:19:28;;;;;;;7.10;1.10;;;;;;;13.63;75.66;99789.69;106147;1271;68353;-69
2022/07/07 04:22:16;;;;;;;6.80;1.20;;;;;;;13.67;75.63;99789.17;104784;1271;72409;-70
2022/07/07 04:25:05;;;;;;;8.30;1.10;;;;;;;13.70;75.37;99786.91;105187;1271;59786;-71
2022/07/07 04:27:52;;;;;;;7.20;0.90;;;;;;;13.75;74.89;99786.71;105000;1271;60489;-69
2022/07/07 04:30:40;;;;;;;6.70;1.30;;;;;;;13.84;74.59;99784.52;104739;1274;73736;-68
2022/07/07 04:33:29;;;;;;;5.80;1.00;;;;;;;13.89;74.13;99787.41;104967;1271;68662;-68
2022/07/07 04:36:17;;;;;;;7.70;1.30;;;;;;;13.94;73.75;99784.75;104820;1271;74225;-71
2022/07/07 04:39:05;;;;;;;4.50;1.00;;;;;;;14.04;73.47;99791.50;105019;1271;60251;-70
2022/07/07 04:41:54;;;;;;;5.70;1.00;;;;;;;14.15;73.10;99788.85;105065;1272;59505;-69
2022/07/07 04:44:42;;;;;;;6.40;1.20;;;;;;;14.23;72.30;99789.08;104975;1271;73663;-72
2022/07/07 04:47:29;;;;;;;7.60;0.90;;;;;;;14.26;71.71;99778.89;104820;1271;68642;-71
2022/07/07 04:50:17;;;;;;;5.50;1.00;;;;;;;14.45;71.55;99789.85;104841;1271;73463;-70
2022/07/07 04:53:05;;;;;;;8.70;1.00;;;;;;;14.55;70.81;99787.23;104906;1271;59694;-72
2022/07/07 04:55:53;;;;;;;7.30;1.10;;;;;;;14.62;70.26;99785.52;104764;1271;61259;-73
2022/07/07 04:58:42;;;;;;;5.10;1.00;;;;;;;15.05;69.25;99786.26;105020;1271;73020;-71
2022/07/07 05:01:29;;;;;;;7.30;1.00;;;;;;;15.13;68.01;99784.40;105049;1271;67028;-71
2022/07/07 05:04:18;;;;;;;4.60;1.00;;;;;;;15.08;68.09;99783.63;105126;1271;73444;-70
2022/07/07 05:07:06;;;;;;;5.80;1.00;;;;;;;15.11;68.15;99783.12;104950;1271;59769;-73
2022/07/07 05:09:54;;;;;;;6.20;1.00;;;;;;;15.20;67.52;99782.81;104978;1271;59987;-73
2022/07/07 05:12:42;;;;;;;7.10;1.40;;;;;;;15.24;67.20;99775.91;104998;1271;72986;-72
2022/07/07 05:15:31;;;;;;;6.90;1.40;;;;;;;15.24;67.19;99776.07;104886;1271;69649;-71
2022/07/07 05:18:26;;;;;;;7.70;1.20;;;;;;;15.43;66.96;99772.38;105126;1271;73378;-75
2022/07/07 05:21:14;;;;;;;4.80;1.10;;;;;;;15.89;65.06;99767.64;105211;1272;294661;-75
2022/07/07 05:24:04;;;;;;;7.40;1.20;;;;;;;16.95;62.11;99765.85;104815;1271;59620;-73
2022/07/07 05:26:53;;;;;;;6.50;1.00;;;;;;;17.99;58.82;99758.35;105011;1271;73278;-73
2022/07/07 05:29:41;;;;;;;6.00;1.00;;;;;;;18.96;55.05;99761.02;104797;1271;68795;-75
2022/07/07 05:32:29;;;;;;;5.20;0.90;;;;;;;19.84;51.89;99756.44;104793;1271;72979;-76
2022/07/07 05:35:17;;;;;;;5.60;0.90;;;;;;;20.59;49.03;99750.48;104825;1271;59696;-75
2022/07/07 05:38:06;;;;;;;5.20;1.00;;;;;;;21.40;46.86;99747.30;105014;1271;60384;-74
2022/07/07 05:40:54;;;;;;;5.30;0.80;;;;;;;22.19;44.74;99750.49;105114;1271;73800;-66
2022/07/07 05:43:42;;;;;;;7.60;1.20;;;;;;;22.97;42.62;99747.39;105140;1271;67513;-73
2022/07/07 05:46:31;;;;;;;6.20;0.90;;;;;;;23.48;40.96;99745.40;107258;1271;73249;-73
2022/07/07 05:49:20;;;;;;;5.10;0.90;;;;;;;24.15;40.06;99742.50;107766;1271;58701;-74
2022/07/07 05:52:08;;;;;;;7.10;0.90;;;;;;;24.64;38.05;99743.75;107205;1271;59614;-72
2022/07/07 05:54:57;;;;;;;5.30;0.80;;;;;;;25.22;37.73;99740.41;107242;1271;74089;-75
2022/07/07 05:57:49;;;;;;;6.20;1.30;;;;;;;25.83;35.92;99735.13;105746;1274;68662;-76
2022/07/07 06:00:37;;;;;;;5.70;0.90;;;;;;;26.15;34.95;99734.74;105335;1272;71313;-72
2022/07/07 06:03:25;;;;;;;6.30;0.90;;;;;;;26.30;34.51;99730.58;105117;1271;59823;-72
2022/07/07 06:06:14;;;;;;;6.10;0.90;;;;;;;26.75;33.75;99736.46;105301;1273;60295;-74
2022/07/07 06:09:03;;;;;;;5.40;0.90;;;;;;;27.13;32.62;99728.98;104977;1273;73124;-77
2022/07/07 06:11:50;;;;;;;7.30;1.00;;;;;;;27.33;31.52;99723.01;105212;1273;67846;-75
2022/07/07 06:14:38;;;;;;;5.70;0.80;;;;;;;27.33;31.34;99721.44;105184;1273;71167;-71
2022/07/07 06:17:27;;;;;;;5.20;0.90;;;;;;;27.79;31.20;99715.71;105008;1273;59856;-74
2022/07/07 06:20:36;;;;;;;5.40;0.80;;;;;;;28.08;29.97;99715.34;105234;1272;59589;-72
2022/07/07 06:23:24;;;;;;;5.10;0.80;;;;;;;28.56;29.77;99705.85;104816;1273;73914;-77
2022/07/07 06:26:13;;;;;;;6.20;1.00;;;;;;;29.29;29.23;99703.59;105394;1274;67346;-72
2022/07/07 06:29:01;;;;;;;5.30;0.90;;;;;;;29.45;28.36;99698.83;104927;1274;74621;-75
2022/07/07 06:31:48;;;;;;;5.50;0.80;;;;;;;29.08;28.42;99700.97;104871;1274;59789;-77
2022/07/07 06:34:37;;;;;;;6.50;0.80;;;;;;;28.92;28.66;99698.09;105378;1272;60221;-75
2022/07/07 06:37:25;;;;;;;5.00;0.80;;;;;;;29.01;28.68;99698.20;105300;1273;73264;-79
2022/07/07 06:40:13;;;;;;;5.50;0.80;;;;;;;29.16;28.41;99700.77;105041;1273;66800;-76
2022/07/07 06:43:01;;;;;;;6.10;0.70;;;;;;;28.56;28.50;99701.18;105081;1273;72768;-77
2022/07/07 06:45:50;;;;;;;5.80;0.70;;;;;;;27.84;29.80;99703.09;105067;1273;59712;-77
2022/07/07 06:48:38;;;;;;;7.40;0.70;;;;;;;27.55;30.18;99703.20;105256;1273;61562;-76
2022/07/07 06:51:27;;;;;;;6.70;0.80;;;;;;;27.96;29.59;99698.02;105070;1273;73367;-74
2022/07/07 06:54:14;;;;;;;5.50;0.80;;;;;;;28.29;29.10;99696.83;105179;1273;67430;-74
2022/07/07 06:57:03;;;;;;;4.00;0.70;;;;;;;28.24;29.33;99700.77;104837;1273;73028;-73
2022/07/07 06:59:51;;;;;;;7.60;0.70;;;;;;;28.19;28.94;99699.77;104778;1274;59682;-75
2022/07/07 07:02:43;;;;;;;4.40;0.80;;;;;;;28.11;28.74;99696.43;104934;1273;60247;-74
2022/07/07 07:05:32;;;;;;;5.40;0.70;;;;;;;28.37;28.52;99693.58;104834;1274;74296;-72
2022/07/07 07:08:20;;;;;;;5.80;1.00;;;;;;;29.10;28.06;99694.92;105106;1271;68486;-73
2022/07/07 07:11:08;;;;;;;6.70;1.10;;;;;;;29.91;26.75;99690.67;105023;1271;71643;-75
2022/07/07 07:13:58;;;;;;;5.00;0.80;;;;;;;30.28;25.72;99692.27;105158;1271;59799;-73
2022/07/07 07:16:47;;;;;;;6.00;0.90;;;;;;;30.07;25.76;99694.08;104918;1271;60307;-73
2022/07/07 07:19:35;;;;;;;6.00;1.00;;;;;;;30.20;26.22;99690.27;104794;1272;73822;-72
2022/07/07 07:22:24;;;;;;;7.30;1.00;;;;;;;30.18;26.43;99687.17;105017;1273;68144;-73
2022/07/07 07:25:15;;;;;;;6.30;0.80;;;;;;;29.22;27.33;99686.44;105168;1272;73989;-73
2022/07/07 07:28:04;;;;;;;4.90;0.80;;;;;;;28.46;28.35;99686.13;104812;1271;60099;-73
2022/07/07 07:30:52;;;;;;;5.40;0.80;;;;;;;28.37;28.24;99686.84;104762;1273;60672;-73
2022/07/07 07:33:40;;;;;;;5.10;0.80;;;;;;;27.97;28.59;99683.95;104965;1271;72393;-74
2022/07/07 07:36:28;;;;;;;6.10;0.90;;;;;;;27.24;29.45;99690.96;105026;1271;68451;-73
2022/07/07 07:39:16;;;;;;;5.60;0.80;;;;;;;26.76;30.13;99689.77;104803;1271;74419;-73
2022/07/07 07:42:04;;;;;;;7.60;1.10;;;;;;;26.66;30.55;99687.98;104742;1271;59663;-70
2022/07/07 07:45:11;;;;;;;8.20;1.40;;;;;;;26.57;31.00;99691.13;104932;1271;61039;-75
2022/07/07 07:48:03;;;;;;;7.60;0.90;;;;;;;26.11;31.79;99687.86;105423;1271;72968;-75
2022/07/07 07:50:51;;;;;;;7.40;1.00;;;;;;;25.91;32.22;99681.17;104950;1271;68043;-75
2022/07/07 07:53:39;;;;;;;4.60;0.90;;;;;;;25.55;33.03;99684.48;104788;1274;72502;-74
2022/07/07 07:56:27;;;;;;;5.50;0.90;;;;;;;25.33;33.24;99683.27;104975;1273;59715;-74
2022/07/07 07:59:15;;;;;;;5.60;0.70;;;;;;;25.74;32.80;99682.27;105192;1271;60568;-74
2022/07/07 08:02:07;;;;;;;7.20;0.90;;;;;;;26.17;32.31;99682.70;105153;1271;74544;-75
2022/07/07 08:04:55;;;;;;;6.60;1.10;;;;;;;26.16;32.02;99684.90;104959;1272;68601;-74
2022/07/07 08:07:44;;;;;;;6.60;0.70;;;;;;;26.61;30.97;99679.16;105201;1271;74448;-72
2022/07/07 08:10:33;;;;;;;9.00;0.80;;;;;;;27.09;30.45;99678.66;104871;1271;59770;-76
2022/07/07 08:13:21;;;;;;;5.90;0.80;;;;;;;27.36;30.40;99680.91;105961;1271;61832;-75
2022/07/07 08:16:09;;;;;;;7.20;0.90;;;;;;;26.76;30.70;99683.02;105066;1271;73568;-74
2022/07/07 08:18:57;;;;;;;6.90;0.90;;;;;;;26.35;31.46;99689.23;105257;1271;66569;-73
2022/07/07 08:21:46;;;;;;;7.60;0.80;;;;;;;26.35;31.89;99681.90;104714;1273;74275;-72
2022/07/07 08:24:35;;;;;;;6.10;1.00;;;;;;;26.23;31.86;99686.70;104745;1272;59762;-74
2022/07/07 08:27:23;;;;;;;6.50;1.00;;;;;;;26.12;32.06;99682.54;105097;1271;60820;-73
2022/07/07 08:30:11;;;;;;;7.00;1.00;;;;;;;25.82;32.53;99681.34;104720;1272;73842;-72
2022/07/07 08:33:00;;;;;;;6.60;0.90;;;;;;;25.36;33.40;99684.98;104796;1273;68442;-72
2022/07/07 08:35:48;;;;;;;9.10;1.00;;;;;;;24.58;34.46;99687.54;104870;1274;72945;-71
2022/07/07 08:38:36;;;;;;;6.30;0.90;;;;;;;24.17;35.12;99689.58;104973;1271;59580;-74
2022/07/07 08:41:25;;;;;;;7.70;1.10;;;;;;;23.82;36.13;99682.84;105071;1271;60258;-74
2022/07/07 08:44:15;;;;;;;7.30;1.50;;;;;;;23.82;36.47;99689.24;105146;1271;73882;-72
2022/07/07 08:47:04;;;;;;;7.80;1.10;;;;;;;23.77;36.43;99689.95;105063;1274;68673;-72
2022/07/07 08:49:52;;;;;;;7.70;1.30;;;;;;;23.75;36.79;99685.21;104810;1272;72084;-71
2022/07/07 08:52:43;;;;;;;5.20;0.80;;;;;;;24.02;36.21;99684.20;104891;1271;59734;-71
2022/07/07 08:55:35;;;;;;;5.40;1.00;;;;;;;23.50;36.66;99690.43;104928;1271;59634;-70
2022/07/07 08:58:23;;;;;;;8.20;1.20;;;;;;;23.21;37.73;99691.12;104786;1272;72865;-71
2022/07/07 09:01:32;;;;;;;7.00;1.00;;;;;;;23.03;37.84;99690.36;104795;1271;66699;-75
2022/07/07 09:04:21;;;;;;;6.80;1.10;;;;;;;22.35;39.19;99694.98;105094;1271;72626;-76
2022/07/07 09:07:09;;;;;;;8.60;1.40;;;;;;;21.64;40.60;99689.04;105112;1271;59823;-73
2022/07/07 09:09:57;;;;;;;5.70;1.10;;;;;;;21.41;41.31;99690.23;105141;1274;59519;-74
2022/07/07 09:12:45;;;;;;;7.30;1.10;;;;;;;21.02;41.88;99690.92;105154;1271;73743;-75
2022/07/07 09:15:40;;;;;;;8.00;1.10;;;;;;;20.52;43.24;99690.14;105018;1272;68353;-75
2022/07/07 09:18:34;;;;;;;7.30;1.00;;;;;;;20.38;43.80;99688.80;105254;1272;72613;-77
2022/07/07 09:21:33;;;;;;;8.00;1.30;;;;;;;20.36;44.07;99685.70;105610;1271;59679;-73
2022/07/07 09:24:21;;;;;;;6.60;1.20;;;;;;;20.28;43.86;99685.17;105020;1271;59656;-75
2022/07/07 09:27:11;;;;;;;13.90;1.90;;;;;;;20.33;43.25;99689.88;104926;1271;73105;-76
2022/07/07 09:29:59;;;;;;;16.20;1.60;;;;;;;20.29;43.03;99689.55;105286;1271;69011;-74
2022/07/07 09:32:47;;;;;;;8.40;1.40;;;;;;;20.08;43.39;99691.68;104907;1274;73447;-76
2022/07/07 09:38:48;;;;;;;8.50;1.30;;;;;;;20.17;43.93;99689.88;105258;1271;62397;-74
2022/07/07 09:41:39;;;;;;;5.20;1.00;;;;;;;20.18;44.21;99688.81;104905;1273;73306;-73
2022/07/07 09:44:28;;;;;;;6.50;1.10;;;;;;;20.45;44.24;99683.98;105209;1271;68115;-75
2022/07/07 09:47:16;;;;;;;7.80;1.20;;;;;;;20.66;43.93;99681.89;105155;1271;73662;-78
2022/07/07 09:50:15;;;;;;;9.90;1.50;;;;;;;20.93;43.29;99678.84;105334;1271;59690;-76
2022/07/07 09:53:07;;;;;;;11.00;1.90;;;;;;;21.04;42.92;99682.50;105097;1271;59706;-75
2022/07/07 09:56:04;;;;;;;8.20;1.30;;;;;;;21.11;43.10;99689.41;105208;1271;73904;-75
2022/07/07 09:58:53;;;;;;;10.10;1.40;;;;;;;21.66;42.35;99680.73;105028;1271;68318;-74
2022/07/07 10:01:46;;;;;;;7.20;1.30;;;;;;;22.19;41.33;99685.08;105169;1271;72159;-78
2022/07/07 10:04:36;;;;;;;7.00;1.00;;;;;;;22.46;40.41;99688.67;104929;1271;59768;-77
2022/07/07 10:07:28;;;;;;;5.50;1.10;;;;;;;22.50;39.88;99693.14;105029;1271;61313;-75
2022/07/07 10:10:21;;;;;;;6.70;1.10;;;;;;;22.78;39.22;99685.36;105196;1274;73370;-74
2022/07/07 10:13:09;;;;;;;5.50;1.00;;;;;;;23.01;39.23;99686.61;105191;1271;68577;-74
2022/07/07 10:15:57;;;;;;;7.50;1.00;;;;;;;23.58;38.49;99689.89;105116;1271;71686;-75
2022/07/07 10:18:46;;;;;;;7.40;1.10;;;;;;;23.96;37.69;99683.52;105090;1271;59678;-76
2022/07/07 10:21:39;;;;;;;5.00;1.10;;;;;;;24.13;37.61;99689.54;104983;1271;60540;-76
2022/07/07 10:24:31;;;;;;;5.60;0.90;;;;;;;24.22;37.28;99688.55;105011;1271;73372;-74
2022/07/07 10:27:22;;;;;;;4.20;0.90;;;;;;;24.09;37.56;99686.13;104988;1271;69623;-77
2022/07/07 10:30:31;;;;;;;6.10;1.40;;;;;;;24.13;37.61;99684.96;105044;1271;71379;-76
2022/07/07 10:33:20;;;;;;;4.10;0.70;;;;;;;23.64;38.46;99688.29;105312;1271;59691;-78
2022/07/07 10:36:08;;;;;;;6.60;1.00;;;;;;;23.71;38.74;99689.56;105170;1272;60602;-76
2022/07/07 10:38:59;;;;;;;4.80;0.90;;;;;;;23.73;38.61;99685.67;104986;1271;72014;-74
2022/07/07 10:42:03;;;;;;;5.80;0.90;;;;;;;23.58;38.93;99690.35;105092;1271;68336;-75
2022/07/07 10:44:53;;;;;;;7.10;1.00;;;;;;;23.15;39.71;99689.66;105061;1272;73240;-75
2022/07/07 10:47:42;;;;;;;6.20;1.00;;;;;;;23.11;40.03;99692.29;105039;1271;60045;-76
2022/07/07 10:50:33;;;;;;;6.10;1.00;;;;;;;23.13;40.26;99689.23;105329;1271;60269;-73
2022/07/07 10:53:31;;;;;;;5.40;0.90;;;;;;;23.29;40.15;99689.34;105112;1271;73174;-74
2022/07/07 10:56:19;;;;;;;5.00;0.90;;;;;;;23.01;41.01;99680.73;105034;1271;68825;-73
2022/07/07 10:59:09;;;;;;;4.50;0.80;;;;;;;22.92;41.30;99697.66;105198;1271;71692;-75
2022/07/07 11:02:00;;;;;;;4.60;0.80;;;;;;;22.71;41.74;99698.84;105351;1271;59659;-76
2022/07/07 11:04:48;;;;;;;4.80;0.90;;;;;;;22.39;42.63;99704.33;105101;1271;62120;-75
2022/07/07 11:07:41;;;;;;;5.10;0.90;;;;;;;22.00;43.35;99702.11;105123;1271;73604;-75
2022/07/07 11:10:46;;;;;;;9.30;1.20;;;;;;;21.75;44.10;99699.93;105208;1272;67855;-76
2022/07/07 11:13:37;;;;;;;8.00;1.10;;;;;;;21.50;44.66;99701.91;105449;1271;71924;-75
2022/07/07 11:16:28;;;;;;;7.40;1.40;;;;;;;21.31;45.33;99708.52;105152;1271;59642;-76
2022/07/07 11:19:16;;;;;;;6.10;1.00;;;;;;;21.12;45.94;99711.98;105058;1271;60349;-76
2022/07/07 11:22:17;;;;;;;5.80;1.00;;;;;;;20.96;46.72;99710.15;105189;1271;73464;-72
2022/07/07 11:25:06;;;;;;;5.50;0.90;;;;;;;20.59;47.66;99716.64;105165;1271;66794;-72
2022/07/07 11:27:56;;;;;;;5.00;0.90;;;;;;;20.21;48.60;99720.54;105008;1271;73302;-75
2022/07/07 11:30:45;;;;;;;13.90;1.30;;;;;;;19.89;49.64;99723.33;105323;1271;60294;-72
2022/07/07 11:33:35;;;;;;;5.70;1.00;;;;;;;19.44;50.86;99725.44;105204;1271;60587;-74
2022/07/07 11:36:28;;;;;;;8.80;1.10;;;;;;;19.26;51.41;99718.83;105028;1271;73198;-75
2022/07/07 11:39:16;;;;;;;5.70;1.20;;;;;;;19.37;51.63;99731.02;105063;1271;67971;-76
2022/07/07 11:42:05;;;;;;;5.60;0.90;;;;;;;19.45;51.87;99727.86;105286;1271;72943;-77
2022/07/07 11:44:53;;;;;;;5.90;1.10;;;;;;;19.53;51.75;99728.38;105430;1271;59566;-77
2022/07/07 11:47:41;;;;;;;6.00;1.20;;;;;;;19.61;52.12;99728.52;105101;1271;62206;-76
2022/07/07 11:50:31;;;;;;;5.50;1.00;;;;;;;19.59;52.11;99733.00;105083;1272;73235;-78
2022/07/07 11:53:22;;;;;;;9.20;1.50;;;;;;;19.55;52.16;99734.20;105219;1271;68089;-79
2022/07/07 11:56:26;;;;;;;5.60;1.20;;;;;;;19.43;52.41;99736.38;105150;1271;70280;-78
2022/07/07 11:59:14;;;;;;;9.30;1.20;;;;;;;19.15;52.89;99741.39;105066;1271;59692;-79
2022/07/07 12:02:16;;;;;;;7.50;1.20;;;;;;;19.04;53.70;99752.05;105108;1271;60711;-78
2022/07/07 12:05:05;;;;;;;4.80;0.90;;;;;;;18.91;54.14;99746.75;105010;1274;72027;-79
2022/07/07 12:08:05;;;;;;;9.70;1.10;;;;;;;18.81;54.75;99747.14;105252;1271;70476;-78
2022/07/07 12:10:55;;;;;;;9.60;1.30;;;;;;;18.87;54.80;99748.98;105100;1271;71551;-77
2022/07/07 12:13:50;;;;;;;9.70;1.50;;;;;;;18.84;54.49;99751.52;105176;1271;59541;-76
2022/07/07 12:16:51;;;;;;;8.40;1.70;;;;;;;18.61;54.98;99747.53;105285;1271;61550;-77
2022/07/07 12:19:49;;;;;;;10.10;1.70;;;;;;;18.53;56.02;99744.79;105145;1271;72148;-77
2022/07/07 12:22:40;;;;;;;6.60;1.20;;;;;;;18.57;56.76;99744.54;105057;1274;68188;-78
2022/07/07 12:25:33;;;;;;;8.80;1.20;;;;;;;18.60;56.68;99746.65;105210;1274;73757;-80
2022/07/07 12:28:38;;;;;;;7.10;1.00;;;;;;;18.60;56.39;99751.42;105255;1274;59708;-77
2022/07/07 12:31:26;;;;;;;5.00;1.00;;;;;;;18.55;56.92;99754.10;104958;1274;60774;-77
2022/07/07 12:34:22;;;;;;;4.80;1.00;;;;;;;18.47;58.25;99752.91;105117;1274;73080;-78
2022/07/07 12:37:10;;;;;;;6.60;1.00;;;;;;;18.35;59.09;99752.61;105309;1274;66625;-80
2022/07/07 12:40:04;;;;;;;7.20;0.90;;;;;;;18.16;59.05;99759.13;105020;1273;71334;-78
2022/07/07 12:42:52;;;;;;;5.90;1.00;;;;;;;18.01;59.29;99759.19;105014;1274;59833;-77
2022/07/07 12:45:42;;;;;;;6.90;1.00;;;;;;;17.86;59.60;99753.83;105264;1274;60534;-75
2022/07/07 12:48:30;;;;;;;5.00;1.20;;;;;;;17.77;60.43;99753.79;105053;1274;75368;-77
2022/07/07 12:51:25;;;;;;;5.20;1.10;;;;;;;17.76;60.67;99751.20;105059;1273;66785;-79
2022/07/07 12:54:31;;;;;;;4.70;1.20;;;;;;;17.72;60.93;99754.77;105146;1274;72666;-77
2022/07/07 12:57:30;;;;;;;5.60;1.00;;;;;;;17.69;61.02;99754.90;105066;1274;59672;-80
2022/07/07 13:00:26;;;;;;;5.20;1.10;;;;;;;17.74;61.72;99753.27;105210;1274;60261;-79
2022/07/07 13:03:14;;;;;;;7.50;1.00;;;;;;;17.72;62.87;99756.04;105180;1274;71710;-79
2022/07/07 13:06:03;;;;;;;9.80;1.30;;;;;;;17.66;62.97;99755.20;105345;1274;66754;-79
2022/07/07 13:08:53;;;;;;;7.50;1.40;;;;;;;17.71;63.10;99749.98;105636;1274;71651;-78
2022/07/07 13:12:09;;;;;;;8.80;1.40;;;;;;;17.81;63.63;99745.44;105604;1274;59657;-80